Anton Chico, New Mexico
Current Conditions -  °F | °C
As of 1:53 AM on Sunday 26 Oct 2014 (Local Time) from KLVS Reporting Station
Clear Clear  
Wind Chill: 57°   Ceiling: Unl
Heat Index: 57°   Visibility: 10mi
Dew Point: 31°   Wind: 10mph
Humidity: 37%   Direction: 250°WSW
Pressure: 30.18"   Gusts: NA
Location:  35.2°N, 105.14°W
Report Text: KLVS 260753Z AUTO 25009KT 10SM CLR 14/M01 A3018 RMK AO2 SLP105 T01391006
Loading
Personal Weather Stations






























Interactive Weather Map New forecast layout! Learn more

10-Day Weather Forecast

Advertisements
Track Severe Weather on mobile